Federal Kumano — VRYL4 — position and weather

sailwx.info

Track history (hours):
 
Tides and Currents Weather Stations Pressure Air Temp Water Temp Dewpoint Dewpoint Depression Visibility Wind Speed Wind Dir Waves Ship Positions

Federal Kumano

Last reported at 2014-Oct-31 11:27 UTC. Time now 2014-Oct-31 12:07 UTC.
Position N 51°17' E 004°21'.

Length 200 m; draft 6.4 m.

Type: Cargo ship. MMSI: 477284000.

Date/timePositionNaut miles runAvg speedWind from/ knotsBaromVisibWave heightAir tempDewpointWater temp
2014-Oct-31 11:27N 51°17' E 004°21'0 0.0
2014-Oct-31 10:33N 51°17' E 004°21'0 0.0
2014-Oct-31 09:33N 51°17' E 004°21'0 0.0
2014-Oct-31 08:33N 51°17' E 004°21'0 0.0
2014-Oct-31 07:30N 51°17' E 004°21'0 0.0
2014-Oct-31 06:33N 51°17' E 004°21'0 0.0
2014-Oct-31 05:32N 51°17' E 004°21'0 0.0
2014-Oct-31 04:32N 51°17' E 004°21'0 0.0
2014-Oct-31 03:32N 51°17' E 004°21'0 0.0
2014-Oct-31 02:32N 51°17' E 004°21'0 0.0
2014-Oct-31 01:31N 51°17' E 004°21'0 0.0
2014-Oct-31 00:31N 51°17' E 004°21'0 0.0
2014-Oct-30 23:31N 51°17' E 004°21'0 0.3
2014-Oct-30 22:33N 51°17' E 004°20'4 3.9
2014-Oct-30 21:34N 51°21' E 004°17'0 0.0
2014-Oct-30 20:34N 51°21' E 004°17'2 1.8
2014-Oct-30 19:33N 51°21' E 004°14'7 7.3
2014-Oct-30 18:34N 51°23' E 004°03'8 8.2
2014-Oct-30 17:34N 51°21' E 003°50'1110.9
2014-Oct-30 16:33N 51°26' E 003°35'10 9.7
2014-Oct-30 15:34N 51°34' E 003°25'1110.6
2014-Oct-30 14:33N 51°42' E 003°15'8 7.6
2014-Oct-30 13:34N 51°47' E 003°06'1 0.6
2014-Oct-30 12:33N 51°48' E 003°05'3 2.7
2014-Oct-30 11:30N 51°49' E 003°02'10 9.9
2014-Oct-30 10:28N 51°56' E 002°49'1212.5
2014-Oct-30 09:32N 52°07' E 002°40'1312.8
2014-Oct-30 08:33N 52°19' E 002°37'3812.0
2014-Oct-30 05:26N 52°52' E 002°08'1011.5
2014-Oct-30 04:33N 52°57' E 001°54'1212.2
2014-Oct-30 03:33N 53°03' E 001°36'1312.7
2014-Oct-30 02:33N 53°10' E 001°19'2712.7
2014-Oct-30 00:26N 53°31' E 000°51'1214.0
2014-Oct-29 23:33N 53°32' E 000°31'1110.7
2014-Oct-29 22:33N 53°33' E 000°13'1111.0
2014-Oct-29 21:33N 53°36' W 000°05'4 4.2
2014-Oct-29 20:33N 53°38' W 000°11'0 0.2
2014-Oct-29 19:32N 53°38' W 000°11'0 0.0
2014-Oct-29 18:32N 53°38' W 000°11'0 0.0
2014-Oct-29 17:32N 53°38' W 000°11'0 0.0
2014-Oct-29 16:32N 53°38' W 000°11'0 0.0
2014-Oct-29 15:32N 53°38' W 000°11'0 0.0
2014-Oct-29 14:32N 53°38' W 000°11'0 0.0
2014-Oct-29 13:32N 53°38' W 000°11'0 0.0
2014-Oct-29 12:32N 53°38' W 000°11'0 0.0
2014-Oct-29 11:32N 53°38' W 000°11'0 0.0
2014-Oct-29 10:32N 53°38' W 000°11'0 0.0
2014-Oct-29 09:32N 53°38' W 000°11'0 0.0
2014-Oct-29 08:32N 53°38' W 000°11'0 0.0
2014-Oct-29 07:32N 53°38' W 000°11'0 0.0
2014-Oct-29 06:32N 53°38' W 000°11'0 0.0
2014-Oct-29 05:32N 53°38' W 000°11'0 0.0
2014-Oct-29 04:32N 53°38' W 000°11'0 0.0
2014-Oct-29 03:32N 53°38' W 000°11'0 0.0
2014-Oct-29 02:32N 53°38' W 000°11'0 0.0
2014-Oct-29 01:32N 53°38' W 000°11'0 0.0
2014-Oct-29 00:32N 53°38' W 000°11'0 0.0
2014-Oct-28 23:32N 53°38' W 000°11'0 0.0
2014-Oct-28 22:32N 53°38' W 000°11'0 0.0
2014-Oct-28 21:32N 53°38' W 000°11'0 0.0
2014-Oct-28 20:32N 53°38' W 000°11'0 0.0
2014-Oct-28 19:32N 53°38' W 000°11'0 0.0
2014-Oct-28 18:32N 53°38' W 000°11'0 0.0
2014-Oct-28 17:32N 53°38' W 000°11'0 0.0
2014-Oct-28 16:32N 53°38' W 000°11'0 0.0
2014-Oct-28 15:32N 53°38' W 000°11'0 0.0
2014-Oct-28 14:32N 53°38' W 000°11'0 0.0
2014-Oct-28 13:32N 53°38' W 000°11'0 0.0
2014-Oct-28 12:32N 53°38' W 000°11'0 0.0
2014-Oct-28 11:32N 53°38' W 000°11'0 0.0
2014-Oct-28 10:32N 53°38' W 000°11'0 0.0
2014-Oct-28 09:32N 53°38' W 000°11'0 0.0
2014-Oct-28 08:32N 53°38' W 000°11'0 0.0
2014-Oct-28 07:32N 53°38' W 000°11'0 0.0
2014-Oct-28 06:32N 53°38' W 000°11'0 0.0
2014-Oct-28 05:32N 53°38' W 000°11'0 0.0
2014-Oct-28 04:32N 53°38' W 000°11'0 0.0
2014-Oct-28 03:32N 53°38' W 000°11'0 0.0
2014-Oct-28 02:32N 53°38' W 000°11'0 0.0
2014-Oct-28 01:32N 53°38' W 000°11'0 0.0
2014-Oct-28 00:32N 53°38' W 000°11'0 0.0
2014-Oct-27 23:32N 53°38' W 000°11'0 0.0
2014-Oct-27 22:32N 53°38' W 000°11'0 0.0
2014-Oct-27 21:32N 53°38' W 000°11'0 0.0
2014-Oct-27 20:26N 53°38' W 000°11'0 0.0
2014-Oct-27 19:32N 53°38' W 000°11'0 0.0
2014-Oct-27 18:29N 53°38' W 000°11'0 0.0
2014-Oct-27 17:32N 53°38' W 000°11'0 0.0
2014-Oct-27 16:32N 53°38' W 000°11'0 0.0
2014-Oct-27 15:32N 53°38' W 000°11'0 0.0
2014-Oct-27 14:32N 53°38' W 000°11'0 0.0
2014-Oct-27 13:32N 53°38' W 000°11'0 0.0
2014-Oct-27 12:32N 53°38' W 000°11'0 0.0
2014-Oct-27 11:32N 53°38' W 000°11'0 0.0
2014-Oct-27 10:32N 53°38' W 000°11'0 0.0
2014-Oct-27 09:32N 53°38' W 000°11'0 0.0
2014-Oct-27 08:32N 53°38' W 000°11'0 0.0
2014-Oct-27 07:32N 53°38' W 000°11'0 0.0
2014-Oct-27 06:32N 53°38' W 000°11'0 0.0
2014-Oct-27 05:32N 53°38' W 000°11'0 0.0
2014-Oct-27 04:32N 53°38' W 000°11'0 0.0
2014-Oct-27 03:32N 53°38' W 000°11'0 0.0
2014-Oct-27 02:32N 53°38' W 000°11'0 0.0
2014-Oct-27 01:32N 53°38' W 000°11'0 0.0
2014-Oct-27 00:32N 53°38' W 000°11'0 0.0
2014-Oct-26 23:32N 53°38' W 000°11'0 0.0
2014-Oct-26 22:32N 53°38' W 000°11'0 0.0
2014-Oct-26 21:32N 53°38' W 000°11'0 0.0
2014-Oct-26 20:32N 53°38' W 000°11'0 0.0
2014-Oct-26 19:29N 53°38' W 000°11'0 0.0
2014-Oct-26 18:32N 53°38' W 000°11'0 0.0
2014-Oct-26 17:32N 53°38' W 000°11'0 0.0
2014-Oct-26 16:32N 53°38' W 000°11'0 0.0
2014-Oct-26 15:32N 53°38' W 000°11'0 0.0
2014-Oct-26 14:26N 53°38' W 000°11'0 0.0
2014-Oct-26 13:32N 53°38' W 000°11'0 0.0
2014-Oct-26 12:32N 53°38' W 000°11'0 0.0
2014-Oct-26 11:32N 53°38' W 000°11'0 0.0
2014-Oct-26 10:32N 53°38' W 000°11'0 0.0
2014-Oct-26 09:32N 53°38' W 000°11'0 0.0
2014-Oct-26 08:32N 53°38' W 000°11'0 0.0
2014-Oct-26 07:32N 53°38' W 000°11'0 0.0
2014-Oct-26 06:32N 53°38' W 000°11'0 0.0
2014-Oct-26 05:32N 53°38' W 000°11'0 0.0
2014-Oct-26 04:29N 53°38' W 000°11'0 0.0
2014-Oct-26 03:32N 53°38' W 000°11'0 0.0
2014-Oct-26 02:32N 53°38' W 000°11'0 0.0
2014-Oct-26 01:32N 53°38' W 000°11'0 0.0
2014-Oct-26 00:32N 53°38' W 000°11'0 0.0
2014-Oct-25 23:29N 53°38' W 000°11'0 0.0
2014-Oct-25 22:32N 53°38' W 000°11'0 0.0
2014-Oct-25 21:32N 53°38' W 000°11'0 0.0
2014-Oct-25 20:32N 53°38' W 000°11'0 0.0
2014-Oct-25 19:32N 53°38' W 000°11'0 0.0
2014-Oct-25 18:32N 53°38' W 000°11'0 0.0
2014-Oct-25 17:32N 53°38' W 000°11'0 0.0
2014-Oct-25 16:26N 53°38' W 000°11'0 0.0
2014-Oct-25 15:32N 53°38' W 000°11'0 0.0
2014-Oct-25 14:32N 53°38' W 000°11'0 0.0
2014-Oct-25 13:32N 53°38' W 000°11'0 0.0
2014-Oct-25 12:33N 53°38' W 000°11'0 0.0
2014-Oct-25 11:32N 53°38' W 000°11'0 0.0
2014-Oct-25 10:32N 53°38' W 000°11'0 0.0
2014-Oct-25 09:32N 53°38' W 000°11'0 0.0
2014-Oct-25 08:32N 53°38' W 000°11'0 0.0
2014-Oct-25 07:26N 53°38' W 000°11'0 0.0
2014-Oct-25 06:32N 53°38' W 000°11'0 0.0
2014-Oct-25 05:32N 53°38' W 000°11'0 0.0
2014-Oct-25 04:32N 53°38' W 000°11'0 0.0
2014-Oct-25 03:32N 53°38' W 000°11'0 0.0
2014-Oct-25 02:32N 53°38' W 000°11'0 0.0
2014-Oct-25 01:32N 53°38' W 000°11'0 0.0
2014-Oct-25 00:32N 53°38' W 000°11'0 0.0
2014-Oct-24 23:32N 53°38' W 000°11'0 0.0
2014-Oct-24 22:32N 53°38' W 000°11'0 0.0
2014-Oct-24 21:32N 53°38' W 000°11'0 0.0
2014-Oct-24 20:32N 53°38' W 000°11'0 0.0
2014-Oct-24 19:32N 53°38' W 000°11'0 0.0
2014-Oct-24 18:32N 53°38' W 000°11'0 0.0
2014-Oct-24 17:32N 53°38' W 000°11'0 0.0
2014-Oct-24 16:32N 53°38' W 000°11'0 0.0
2014-Oct-24 15:32N 53°38' W 000°11'0 0.0
2014-Oct-24 14:32N 53°38' W 000°11'0 0.0
2014-Oct-24 13:32N 53°38' W 000°11'0 0.0
2014-Oct-24 12:32N 53°38' W 000°11'0 0.0
2014-Oct-24 11:29N 53°38' W 000°11'0 0.0
2014-Oct-24 10:32N 53°38' W 000°11'0 0.0
2014-Oct-24 09:32N 53°38' W 000°11'0 0.0
2014-Oct-24 08:32N 53°38' W 000°11'0 0.0
2014-Oct-24 07:32N 53°38' W 000°11'0 0.0
2014-Oct-24 06:32N 53°38' W 000°11'0 0.0
2014-Oct-24 05:32N 53°38' W 000°11'0 0.0
2014-Oct-24 04:32N 53°38' W 000°11'0 0.0
2014-Oct-24 03:32N 53°38' W 000°11'0 0.0
2014-Oct-24 02:32N 53°38' W 000°11'0 0.0
2014-Oct-24 01:32N 53°38' W 000°11'0 0.0
2014-Oct-24 00:32N 53°38' W 000°11'0 0.0
2014-Oct-23 23:32N 53°38' W 000°11'0 0.0
2014-Oct-23 22:29N 53°38' W 000°11'0 0.0
2014-Oct-23 21:32N 53°38' W 000°11'0 0.0
2014-Oct-23 20:32N 53°38' W 000°11'0 0.0
2014-Oct-23 19:32N 53°38' W 000°11'0 0.0
2014-Oct-23 18:32N 53°38' W 000°11'0 0.0
2014-Oct-23 17:32N 53°38' W 000°11'0 0.0
2014-Oct-23 16:32N 53°38' W 000°11'0 0.0
2014-Oct-23 15:32N 53°38' W 000°11'0 0.0
2014-Oct-23 14:32N 53°38' W 000°11'0 0.0
2014-Oct-23 13:32N 53°38' W 000°11'0 0.0
2014-Oct-23 12:32N 53°38' W 000°11'0 0.0
2014-Oct-23 11:32N 53°38' W 000°11'0 0.0
2014-Oct-23 10:32N 53°38' W 000°11'0 0.0
2014-Oct-23 09:32N 53°38' W 000°11'0 0.0
2014-Oct-23 08:32N 53°38' W 000°11'0 0.0
2014-Oct-23 07:32N 53°38' W 000°11'0 0.0
2014-Oct-23 06:26N 53°38' W 000°11'0 0.0
2014-Oct-23 05:32N 53°38' W 000°11'0 0.0
2014-Oct-23 04:32N 53°38' W 000°11'0 0.0
2014-Oct-23 03:32N 53°38' W 000°11'0 0.0
2014-Oct-23 02:32N 53°38' W 000°11'0 0.0
2014-Oct-23 01:32N 53°38' W 000°11'0 0.0
2014-Oct-23 00:32N 53°38' W 000°11'0 0.0
2014-Oct-22 23:32N 53°38' W 000°11'0 0.0
2014-Oct-22 22:32N 53°38' W 000°11'0 0.0
2014-Oct-22 21:32N 53°38' W 000°11'0 0.0
2014-Oct-22 20:32N 53°38' W 000°11'0 0.0
2014-Oct-22 19:32N 53°38' W 000°11'0 0.0
2014-Oct-22 18:32N 53°38' W 000°11'0 0.0
2014-Oct-22 17:32N 53°38' W 000°11'0 0.0
2014-Oct-22 16:32N 53°38' W 000°11'0 0.0
2014-Oct-22 15:32N 53°38' W 000°11'0 0.0
2014-Oct-22 14:32N 53°38' W 000°11'0 0.0
2014-Oct-22 13:32N 53°38' W 000°11'0 0.0
2014-Oct-22 12:32N 53°38' W 000°11'0 0.0
2014-Oct-22 11:32N 53°38' W 000°11'0 0.0
2014-Oct-22 10:32N 53°38' W 000°11'0 0.0
2014-Oct-22 09:32N 53°38' W 000°11'0 0.0
2014-Oct-22 08:32N 53°38' W 000°11'0 0.0
2014-Oct-22 07:32N 53°38' W 000°11'0 0.0
2014-Oct-22 06:26N 53°38' W 000°11'0 0.0
2014-Oct-22 05:32N 53°38' W 000°11'0 0.0
2014-Oct-22 04:32N 53°38' W 000°11'0 0.0
2014-Oct-22 03:26N 53°38' W 000°11'0 0.0
2014-Oct-22 02:32N 53°38' W 000°11'0 0.0
2014-Oct-22 01:32N 53°38' W 000°11'0 0.0
2014-Oct-22 00:32N 53°38' W 000°11'0 0.0
2014-Oct-21 23:32N 53°38' W 000°11'0 0.0
2014-Oct-21 22:32N 53°38' W 000°11'0 0.0
2014-Oct-21 21:32N 53°38' W 000°11'0 0.0
2014-Oct-21 20:32N 53°38' W 000°11'0 0.0
2014-Oct-21 19:32N 53°38' W 000°11'0 0.0
2014-Oct-21 18:32N 53°38' W 000°11'0 0.0
2014-Oct-21 17:32N 53°38' W 000°11'0 0.0
2014-Oct-21 16:33N 53°38' W 000°11'1 1.3
2014-Oct-21 15:33N 53°38' W 000°09'9 9.1
2014-Oct-21 14:33N 53°34' E 000°05'8 8.0
2014-Oct-21 13:33N 53°33' E 000°18'4 4.0
2014-Oct-21 12:33N 53°35' E 000°24'2 1.9
2014-Oct-21 11:32N 53°37' E 000°24'  
Track history (hours):
 
Tides and Currents Weather Stations Pressure Air Temp Water Temp Dewpoint Dewpoint Depression Visibility Wind Speed Wind Dir Waves Ship Positions

Federal Kumano

Last reported at 2014-Oct-31 11:27 UTC. Time now 2014-Oct-31 12:07 UTC.
Position N 51°17' E 004°21'.

Length 200 m; draft 6.4 m.

Type: Cargo ship. MMSI: 477284000.

Date/timePositionNaut miles runAvg speedWind from/ knotsBaromVisibWave heightAir tempDewpointWater temp
2014-Oct-31 11:27N 51°17' E 004°21'0 0.0
2014-Oct-31 10:33N 51°17' E 004°21'0 0.0
2014-Oct-31 09:33N 51°17' E 004°21'0 0.0
2014-Oct-31 08:33N 51°17' E 004°21'0 0.0
2014-Oct-31 07:30N 51°17' E 004°21'0 0.0
2014-Oct-31 06:33N 51°17' E 004°21'0 0.0
2014-Oct-31 05:32N 51°17' E 004°21'0 0.0
2014-Oct-31 04:32N 51°17' E 004°21'0 0.0
2014-Oct-31 03:32N 51°17' E 004°21'0 0.0
2014-Oct-31 02:32N 51°17' E 004°21'0 0.0
2014-Oct-31 01:31N 51°17' E 004°21'0 0.0
2014-Oct-31 00:31N 51°17' E 004°21'0 0.0
2014-Oct-30 23:31N 51°17' E 004°21'0 0.3
2014-Oct-30 22:33N 51°17' E 004°20'4 3.9
2014-Oct-30 21:34N 51°21' E 004°17'0 0.0
2014-Oct-30 20:34N 51°21' E 004°17'2 1.8
2014-Oct-30 19:33N 51°21' E 004°14'7 7.3
2014-Oct-30 18:34N 51°23' E 004°03'8 8.2
2014-Oct-30 17:34N 51°21' E 003°50'1110.9
2014-Oct-30 16:33N 51°26' E 003°35'10 9.7
2014-Oct-30 15:34N 51°34' E 003°25'1110.6
2014-Oct-30 14:33N 51°42' E 003°15'8 7.6
2014-Oct-30 13:34N 51°47' E 003°06'1 0.6
2014-Oct-30 12:33N 51°48' E 003°05'3 2.7
2014-Oct-30 11:30N 51°49' E 003°02'10 9.9
2014-Oct-30 10:28N 51°56' E 002°49'1212.5
2014-Oct-30 09:32N 52°07' E 002°40'1312.8
2014-Oct-30 08:33N 52°19' E 002°37'3812.0
2014-Oct-30 05:26N 52°52' E 002°08'1011.5
2014-Oct-30 04:33N 52°57' E 001°54'1212.2
2014-Oct-30 03:33N 53°03' E 001°36'1312.7
2014-Oct-30 02:33N 53°10' E 001°19'2712.7
2014-Oct-30 00:26N 53°31' E 000°51'1214.0
2014-Oct-29 23:33N 53°32' E 000°31'1110.7
2014-Oct-29 22:33N 53°33' E 000°13'1111.0
2014-Oct-29 21:33N 53°36' W 000°05'4 4.2
2014-Oct-29 20:33N 53°38' W 000°11'0 0.2
2014-Oct-29 19:32N 53°38' W 000°11'0 0.0
2014-Oct-29 18:32N 53°38' W 000°11'0 0.0
2014-Oct-29 17:32N 53°38' W 000°11'0 0.0
2014-Oct-29 16:32N 53°38' W 000°11'0 0.0
2014-Oct-29 15:32N 53°38' W 000°11'0 0.0
2014-Oct-29 14:32N 53°38' W 000°11'0 0.0
2014-Oct-29 13:32N 53°38' W 000°11'0 0.0
2014-Oct-29 12:32N 53°38' W 000°11'0 0.0
2014-Oct-29 11:32N 53°38' W 000°11'0 0.0
2014-Oct-29 10:32N 53°38' W 000°11'0 0.0
2014-Oct-29 09:32N 53°38' W 000°11'0 0.0
2014-Oct-29 08:32N 53°38' W 000°11'0 0.0
2014-Oct-29 07:32N 53°38' W 000°11'0 0.0
2014-Oct-29 06:32N 53°38' W 000°11'0 0.0
2014-Oct-29 05:32N 53°38' W 000°11'0 0.0
2014-Oct-29 04:32N 53°38' W 000°11'0 0.0
2014-Oct-29 03:32N 53°38' W 000°11'0 0.0
2014-Oct-29 02:32N 53°38' W 000°11'0 0.0
2014-Oct-29 01:32N 53°38' W 000°11'0 0.0
2014-Oct-29 00:32N 53°38' W 000°11'0 0.0
2014-Oct-28 23:32N 53°38' W 000°11'0 0.0
2014-Oct-28 22:32N 53°38' W 000°11'0 0.0
2014-Oct-28 21:32N 53°38' W 000°11'0 0.0
2014-Oct-28 20:32N 53°38' W 000°11'0 0.0
2014-Oct-28 19:32N 53°38' W 000°11'0 0.0
2014-Oct-28 18:32N 53°38' W 000°11'0 0.0
2014-Oct-28 17:32N 53°38' W 000°11'0 0.0
2014-Oct-28 16:32N 53°38' W 000°11'0 0.0
2014-Oct-28 15:32N 53°38' W 000°11'0 0.0
2014-Oct-28 14:32N 53°38' W 000°11'0 0.0
2014-Oct-28 13:32N 53°38' W 000°11'0 0.0
2014-Oct-28 12:32N 53°38' W 000°11'0 0.0
2014-Oct-28 11:32N 53°38' W 000°11'0 0.0
2014-Oct-28 10:32N 53°38' W 000°11'0 0.0
2014-Oct-28 09:32N 53°38' W 000°11'0 0.0
2014-Oct-28 08:32N 53°38' W 000°11'0 0.0
2014-Oct-28 07:32N 53°38' W 000°11'0 0.0
2014-Oct-28 06:32N 53°38' W 000°11'0 0.0
2014-Oct-28 05:32N 53°38' W 000°11'0 0.0
2014-Oct-28 04:32N 53°38' W 000°11'0 0.0
2014-Oct-28 03:32N 53°38' W 000°11'0 0.0
2014-Oct-28 02:32N 53°38' W 000°11'0 0.0
2014-Oct-28 01:32N 53°38' W 000°11'0 0.0
2014-Oct-28 00:32N 53°38' W 000°11'0 0.0
2014-Oct-27 23:32N 53°38' W 000°11'0 0.0
2014-Oct-27 22:32N 53°38' W 000°11'0 0.0
2014-Oct-27 21:32N 53°38' W 000°11'0 0.0
2014-Oct-27 20:26N 53°38' W 000°11'0 0.0
2014-Oct-27 19:32N 53°38' W 000°11'0 0.0
2014-Oct-27 18:29N 53°38' W 000°11'0 0.0
2014-Oct-27 17:32N 53°38' W 000°11'0 0.0
2014-Oct-27 16:32N 53°38' W 000°11'0 0.0
2014-Oct-27 15:32N 53°38' W 000°11'0 0.0
2014-Oct-27 14:32N 53°38' W 000°11'0 0.0
2014-Oct-27 13:32N 53°38' W 000°11'0 0.0
2014-Oct-27 12:32N 53°38' W 000°11'0 0.0
2014-Oct-27 11:32N 53°38' W 000°11'0 0.0
2014-Oct-27 10:32N 53°38' W 000°11'0 0.0
2014-Oct-27 09:32N 53°38' W 000°11'0 0.0
2014-Oct-27 08:32N 53°38' W 000°11'0 0.0
2014-Oct-27 07:32N 53°38' W 000°11'0 0.0
2014-Oct-27 06:32N 53°38' W 000°11'0 0.0
2014-Oct-27 05:32N 53°38' W 000°11'0 0.0
2014-Oct-27 04:32N 53°38' W 000°11'0 0.0
2014-Oct-27 03:32N 53°38' W 000°11'0 0.0
2014-Oct-27 02:32N 53°38' W 000°11'0 0.0
2014-Oct-27 01:32N 53°38' W 000°11'0 0.0
2014-Oct-27 00:32N 53°38' W 000°11'0 0.0
2014-Oct-26 23:32N 53°38' W 000°11'0 0.0
2014-Oct-26 22:32N 53°38' W 000°11'0 0.0
2014-Oct-26 21:32N 53°38' W 000°11'0 0.0
2014-Oct-26 20:32N 53°38' W 000°11'0 0.0
2014-Oct-26 19:29N 53°38' W 000°11'0 0.0
2014-Oct-26 18:32N 53°38' W 000°11'0 0.0
2014-Oct-26 17:32N 53°38' W 000°11'0 0.0
2014-Oct-26 16:32N 53°38' W 000°11'0 0.0
2014-Oct-26 15:32N 53°38' W 000°11'0 0.0
2014-Oct-26 14:26N 53°38' W 000°11'0 0.0
2014-Oct-26 13:32N 53°38' W 000°11'0 0.0
2014-Oct-26 12:32N 53°38' W 000°11'0 0.0
2014-Oct-26 11:32N 53°38' W 000°11'0 0.0
2014-Oct-26 10:32N 53°38' W 000°11'0 0.0
2014-Oct-26 09:32N 53°38' W 000°11'0 0.0
2014-Oct-26 08:32N 53°38' W 000°11'0 0.0
2014-Oct-26 07:32N 53°38' W 000°11'0 0.0
2014-Oct-26 06:32N 53°38' W 000°11'0 0.0
2014-Oct-26 05:32N 53°38' W 000°11'0 0.0
2014-Oct-26 04:29N 53°38' W 000°11'0 0.0
2014-Oct-26 03:32N 53°38' W 000°11'0 0.0
2014-Oct-26 02:32N 53°38' W 000°11'0 0.0
2014-Oct-26 01:32N 53°38' W 000°11'0 0.0
2014-Oct-26 00:32N 53°38' W 000°11'0 0.0
2014-Oct-25 23:29N 53°38' W 000°11'0 0.0
2014-Oct-25 22:32N 53°38' W 000°11'0 0.0
2014-Oct-25 21:32N 53°38' W 000°11'0 0.0
2014-Oct-25 20:32N 53°38' W 000°11'0 0.0
2014-Oct-25 19:32N 53°38' W 000°11'0 0.0
2014-Oct-25 18:32N 53°38' W 000°11'0 0.0
2014-Oct-25 17:32N 53°38' W 000°11'0 0.0
2014-Oct-25 16:26N 53°38' W 000°11'0 0.0
2014-Oct-25 15:32N 53°38' W 000°11'0 0.0
2014-Oct-25 14:32N 53°38' W 000°11'0 0.0
2014-Oct-25 13:32N 53°38' W 000°11'0 0.0
2014-Oct-25 12:33N 53°38' W 000°11'0 0.0
2014-Oct-25 11:32N 53°38' W 000°11'0 0.0
2014-Oct-25 10:32N 53°38' W 000°11'0 0.0
2014-Oct-25 09:32N 53°38' W 000°11'0 0.0
2014-Oct-25 08:32N 53°38' W 000°11'0 0.0
2014-Oct-25 07:26N 53°38' W 000°11'0 0.0
2014-Oct-25 06:32N 53°38' W 000°11'0 0.0
2014-Oct-25 05:32N 53°38' W 000°11'0 0.0
2014-Oct-25 04:32N 53°38' W 000°11'0 0.0
2014-Oct-25 03:32N 53°38' W 000°11'0 0.0
2014-Oct-25 02:32N 53°38' W 000°11'0 0.0
2014-Oct-25 01:32N 53°38' W 000°11'0 0.0
2014-Oct-25 00:32N 53°38' W 000°11'0 0.0
2014-Oct-24 23:32N 53°38' W 000°11'0 0.0
2014-Oct-24 22:32N 53°38' W 000°11'0 0.0
2014-Oct-24 21:32N 53°38' W 000°11'0 0.0
2014-Oct-24 20:32N 53°38' W 000°11'0 0.0
2014-Oct-24 19:32N 53°38' W 000°11'0 0.0
2014-Oct-24 18:32N 53°38' W 000°11'0 0.0
2014-Oct-24 17:32N 53°38' W 000°11'0 0.0
2014-Oct-24 16:32N 53°38' W 000°11'0 0.0
2014-Oct-24 15:32N 53°38' W 000°11'0 0.0
2014-Oct-24 14:32N 53°38' W 000°11'0 0.0
2014-Oct-24 13:32N 53°38' W 000°11'0 0.0
2014-Oct-24 12:32N 53°38' W 000°11'0 0.0
2014-Oct-24 11:29N 53°38' W 000°11'0 0.0
2014-Oct-24 10:32N 53°38' W 000°11'0 0.0
2014-Oct-24 09:32N 53°38' W 000°11'0 0.0
2014-Oct-24 08:32N 53°38' W 000°11'0 0.0
2014-Oct-24 07:32N 53°38' W 000°11'0 0.0
2014-Oct-24 06:32N 53°38' W 000°11'0 0.0
2014-Oct-24 05:32N 53°38' W 000°11'0 0.0
2014-Oct-24 04:32N 53°38' W 000°11'0 0.0
2014-Oct-24 03:32N 53°38' W 000°11'0 0.0
2014-Oct-24 02:32N 53°38' W 000°11'0 0.0
2014-Oct-24 01:32N 53°38' W 000°11'0 0.0
2014-Oct-24 00:32N 53°38' W 000°11'0 0.0
2014-Oct-23 23:32N 53°38' W 000°11'0 0.0
2014-Oct-23 22:29N 53°38' W 000°11'0 0.0
2014-Oct-23 21:32N 53°38' W 000°11'0 0.0
2014-Oct-23 20:32N 53°38' W 000°11'0 0.0
2014-Oct-23 19:32N 53°38' W 000°11'0 0.0
2014-Oct-23 18:32N 53°38' W 000°11'0 0.0
2014-Oct-23 17:32N 53°38' W 000°11'0 0.0
2014-Oct-23 16:32N 53°38' W 000°11'0 0.0
2014-Oct-23 15:32N 53°38' W 000°11'0 0.0
2014-Oct-23 14:32N 53°38' W 000°11'0 0.0
2014-Oct-23 13:32N 53°38' W 000°11'0 0.0
2014-Oct-23 12:32N 53°38' W 000°11'0 0.0
2014-Oct-23 11:32N 53°38' W 000°11'0 0.0
2014-Oct-23 10:32N 53°38' W 000°11'0 0.0
2014-Oct-23 09:32N 53°38' W 000°11'0 0.0
2014-Oct-23 08:32N 53°38' W 000°11'0 0.0
2014-Oct-23 07:32N 53°38' W 000°11'0 0.0
2014-Oct-23 06:26N 53°38' W 000°11'0 0.0
2014-Oct-23 05:32N 53°38' W 000°11'0 0.0
2014-Oct-23 04:32N 53°38' W 000°11'0 0.0
2014-Oct-23 03:32N 53°38' W 000°11'0 0.0
2014-Oct-23 02:32N 53°38' W 000°11'0 0.0
2014-Oct-23 01:32N 53°38' W 000°11'0 0.0
2014-Oct-23 00:32N 53°38' W 000°11'0 0.0
2014-Oct-22 23:32N 53°38' W 000°11'0 0.0
2014-Oct-22 22:32N 53°38' W 000°11'0 0.0
2014-Oct-22 21:32N 53°38' W 000°11'0 0.0
2014-Oct-22 20:32N 53°38' W 000°11'0 0.0
2014-Oct-22 19:32N 53°38' W 000°11'0 0.0
2014-Oct-22 18:32N 53°38' W 000°11'0 0.0
2014-Oct-22 17:32N 53°38' W 000°11'0 0.0
2014-Oct-22 16:32N 53°38' W 000°11'0 0.0
2014-Oct-22 15:32N 53°38' W 000°11'0 0.0
2014-Oct-22 14:32N 53°38' W 000°11'0 0.0
2014-Oct-22 13:32N 53°38' W 000°11'0 0.0
2014-Oct-22 12:32N 53°38' W 000°11'0 0.0
2014-Oct-22 11:32N 53°38' W 000°11'0 0.0
2014-Oct-22 10:32N 53°38' W 000°11'0 0.0
2014-Oct-22 09:32N 53°38' W 000°11'0 0.0
2014-Oct-22 08:32N 53°38' W 000°11'0 0.0
2014-Oct-22 07:32N 53°38' W 000°11'0 0.0
2014-Oct-22 06:26N 53°38' W 000°11'0 0.0
2014-Oct-22 05:32N 53°38' W 000°11'0 0.0
2014-Oct-22 04:32N 53°38' W 000°11'0 0.0
2014-Oct-22 03:26N 53°38' W 000°11'0 0.0
2014-Oct-22 02:32N 53°38' W 000°11'0 0.0
2014-Oct-22 01:32N 53°38' W 000°11'0 0.0
2014-Oct-22 00:32N 53°38' W 000°11'0 0.0
2014-Oct-21 23:32N 53°38' W 000°11'0 0.0
2014-Oct-21 22:32N 53°38' W 000°11'0 0.0
2014-Oct-21 21:32N 53°38' W 000°11'0 0.0
2014-Oct-21 20:32N 53°38' W 000°11'0 0.0
2014-Oct-21 19:32N 53°38' W 000°11'0 0.0
2014-Oct-21 18:32N 53°38' W 000°11'0 0.0
2014-Oct-21 17:32N 53°38' W 000°11'0 0.0
2014-Oct-21 16:33N 53°38' W 000°11'1 1.3
2014-Oct-21 15:33N 53°38' W 000°09'9 9.1
2014-Oct-21 14:33N 53°34' E 000°05'8 8.0
2014-Oct-21 13:33N 53°33' E 000°18'4 4.0
2014-Oct-21 12:33N 53°35' E 000°24'2 1.9
2014-Oct-21 11:32N 53°37' E 000°24'  

Dump ship's entire track history